Weather at Aviano Air Base

Public forecast

Using degrees Celsius for public forecast. Weather courtesy of forecast.io.

Current aviation weather report (METAR) for Aviano Air Base

2024/05/25 09:55 (retrieved 1 hour ago)

LIPA 250955Z 28007KT 9999 FEW050 SCT060 BKN090 17/14 Q1017 RMK BKN VIS MIN 9999 WIND THR05 /////KT WIND THR23 /////KT A3004 BLU

Closest aviation forecast (TAF) to Aviano Air Base

Closest forecast is Treviso Antonio Canova Airport, 28.5 nm (52.8 km) SW.

2024/05/25 06:00 (retrieved 5 hours ago)

TAF LIPH 250500Z 2506/2606 VRB05KT 9999 SCT030 TEMPO 2506/2509 SHRA TEMPO 2512/2518 SHRA